Pagrindinis puslapis
METAR-TAF:

METAR-TAF

Oro uostai :

Oklandas, Naujoji Zelandija

platuma: 37-01S, ilguma: 174-48E, Aukštis: 7 m

Dabartinis oras

Ataskaita buvo paskelbta 38 minutes, ne 06:00 UTC
Vėjas 7 kt iš Pietų
Temperatūra 21°C
Drėgmė 69%
Slėgis 1009 hPa
Matomumas 10 km arba daugiau

METAR: NZAA 120600Z AUTO 19007KT 9999 OVC100/// 21/15 Q1009 NOSIG

Laikas: 19:38 (06:38 UTC)

Prognozė

Ataskaita buvo paskelbta 1 valandą ir 36 minutes, ne 05:02 UTC
Prognozė galioja nuo 12 metu 06 UTC su 13 metu 06 UTC
Vėjas 10 kt iš Pietvakarių
Matomumas 10 km arba daugiau
Mažai debesys ne aukštis 4000 ft
Tapsmas
nuo 12 metu 12 UTC su 12 metu 14 UTC
Vėjas 5 kt iš Vakarų
Laikinai
nuo 12 metu 17 UTC su 12 metu 20 UTC
Su prošvaistėmis ne aukštis 1200 ft
Tapsmas
nuo 12 metu 22 UTC su 13 metu 00 UTC
Vėjas 15 kt iš Vakarų/Pietvakarių

TAF: NZAA 120502Z 1206/1306 22010KT 9999 FEW040 BECMG 1212/1214 28005KT TEMPO 1217/1220 BKN012 BECMG 1222/1300 25015KT

Orai ataskaitas ir orų prognozės (METAR, TAF).

turimą stotys yra geltonos ir raudonos taškus žemėlapyje.

Perkelti pele per norėdami pamatyti stoties vardą.

Tada spustelėkite, norėdami matyti oro stebėjimo ir prognozės.

Norėdami pakeisti žemėlapį: spustelėkite ant žalios mygtukų su juodo kryžiaus žemyn,; žalią mygtuką su brūkšneliu, jei norite nutolinti; arba žalių rodyklių gretimoms žemėlapius.


METAR-TAF: